sensor_id;sensor_type;location;lat;lon;timestamp;P1;durP1;ratioP1;P2;durP2;ratioP2
51248;SDS011;39642;47.556;18.728;2022-11-15T00:30:17;17.33;;;9.30;;
51248;SDS011;39642;47.556;18.728;2022-11-15T00:32:43;15.93;;;8.55;;
51248;SDS011;39642;47.556;18.728;2022-11-15T00:35:09;16.45;;;8.73;;
51248;SDS011;39642;47.556;18.728;2022-11-15T00:37:35;16.70;;;9.13;;
51248;SDS011;39642;47.556;18.728;2022-11-15T00:40:01;17.20;;;9.32;;
51248;SDS011;39642;47.556;18.728;2022-11-15T00:42:27;16.70;;;8.82;;
51248;SDS011;39642;47.556;18.728;2022-11-15T00:44:52;18.60;;;9.43;;
51248;SDS011;39642;47.556;18.728;2022-11-15T00:47:18;16.95;;;8.38;;
51248;SDS011;39642;47.556;18.728;2022-11-15T00:49:44;16.77;;;8.95;;
51248;SDS011;39642;47.556;18.728;2022-11-15T00:52:10;16.83;;;8.73;;
51248;SDS011;39642;47.556;18.728;2022-11-15T00:54:36;17.12;;;9.00;;
51248;SDS011;39642;47.556;18.728;2022-11-15T00:57:02;16.05;;;8.52;;
51248;SDS011;39642;47.556;18.728;2022-11-15T00:59:28;15.23;;;8.27;;
51248;SDS011;39642;47.556;18.728;2022-11-15T01:01:54;14.90;;;7.95;;
51248;SDS011;39642;47.556;18.728;2022-11-15T01:04:19;16.33;;;8.25;;
51248;SDS011;39642;47.556;18.728;2022-11-15T01:06:45;15.98;;;8.05;;
51248;SDS011;39642;47.556;18.728;2022-11-15T01:09:11;16.65;;;8.25;;
51248;SDS011;39642;47.556;18.728;2022-11-15T01:11:37;15.50;;;7.90;;
51248;SDS011;39642;47.556;18.728;2022-11-15T01:14:03;17.67;;;8.43;;
51248;SDS011;39642;47.556;18.728;2022-11-15T01:16:29;15.65;;;8.32;;
51248;SDS011;39642;47.556;18.728;2022-11-15T01:18:55;16.62;;;8.65;;
51248;SDS011;39642;47.556;18.728;2022-11-15T01:21:21;16.80;;;8.48;;
51248;SDS011;39642;47.556;18.728;2022-11-15T01:23:47;16.05;;;8.57;;
51248;SDS011;39642;47.556;18.728;2022-11-15T01:26:13;16.05;;;7.97;;
51248;SDS011;39642;47.556;18.728;2022-11-15T01:28:41;16.62;;;8.48;;
51248;SDS011;39642;47.556;18.728;2022-11-15T01:31:11;15.52;;;8.27;;
51248;SDS011;39642;47.556;18.728;2022-11-15T01:33:39;16.40;;;8.52;;
51248;SDS011;39642;47.556;18.728;2022-11-15T01:36:05;16.35;;;7.97;;
51248;SDS011;39642;47.556;18.728;2022-11-15T01:38:33;15.55;;;8.15;;
51248;SDS011;39642;47.556;18.728;2022-11-15T01:40:59;15.43;;;7.97;;
51248;SDS011;39642;47.556;18.728;2022-11-15T01:43:29;16.80;;;8.48;;
51248;SDS011;39642;47.556;18.728;2022-11-15T01:46:21;17.20;;;8.65;;
51248;SDS011;39642;47.556;18.728;2022-11-15T01:48:57;15.98;;;8.40;;
51248;SDS011;39642;47.556;18.728;2022-11-15T01:51:36;16.62;;;8.13;;
51248;SDS011;39642;47.556;18.728;2022-11-15T01:54:07;16.48;;;8.18;;
51248;SDS011;39642;47.556;18.728;2022-11-15T01:56:38;15.18;;;7.90;;
51248;SDS011;39642;47.556;18.728;2022-11-15T01:59:11;15.57;;;7.60;;
51248;SDS011;39642;47.556;18.728;2022-11-15T02:01:38;15.30;;;8.30;;
51248;SDS011;39642;47.556;18.728;2022-11-15T02:04:06;14.23;;;7.60;;
51248;SDS011;39642;47.556;18.728;2022-11-15T02:06:42;14.35;;;7.37;;
51248;SDS011;39642;47.556;18.728;2022-11-15T02:09:09;17.17;;;8.43;;
51248;SDS011;39642;47.556;18.728;2022-11-15T02:11:36;16.73;;;8.07;;
51248;SDS011;39642;47.556;18.728;2022-11-15T02:14:02;15.25;;;7.70;;
51248;SDS011;39642;47.556;18.728;2022-11-15T02:16:35;15.30;;;7.97;;
51248;SDS011;39642;47.556;18.728;2022-11-15T02:19:16;15.80;;;7.40;;
51248;SDS011;39642;47.556;18.728;2022-11-15T02:30:45;15.20;;;8.15;;
51248;SDS011;39642;47.556;18.728;2022-11-15T02:36:16;14.87;;;7.55;;
51248;SDS011;39642;47.556;18.728;2022-11-15T02:39:03;15.35;;;7.95;;
51248;SDS011;39642;47.556;18.728;2022-11-15T02:42:09;15.60;;;7.57;;
51248;SDS011;39642;47.556;18.728;2022-11-15T02:44:57;15.90;;;8.10;;
51248;SDS011;39642;47.556;18.728;2022-11-15T02:47:28;14.90;;;7.60;;
51248;SDS011;39642;47.556;18.728;2022-11-15T02:49:58;14.85;;;7.37;;
51248;SDS011;39642;47.556;18.728;2022-11-15T02:52:27;15.25;;;7.97;;
51248;SDS011;39642;47.556;18.728;2022-11-15T02:54:54;14.68;;;7.65;;
51248;SDS011;39642;47.556;18.728;2022-11-15T02:57:26;15.38;;;7.97;;
51248;SDS011;39642;47.556;18.728;2022-11-15T03:00:10;15.93;;;7.53;;
51248;SDS011;39642;47.556;18.728;2022-11-15T03:08:10;14.73;;;7.37;;
51248;SDS011;39642;47.556;18.728;2022-11-15T03:14:18;14.80;;;7.90;;
51248;SDS011;39642;47.556;18.728;2022-11-15T03:16:33;13.90;;;7.22;;
51248;SDS011;39642;47.556;18.728;2022-11-15T03:22:03;15.13;;;7.55;;
51248;SDS011;39642;47.556;18.728;2022-11-15T03:24:33;14.38;;;7.55;;
51248;SDS011;39642;47.556;18.728;2022-11-15T03:27:02;13.80;;;6.57;;
51248;SDS011;39642;47.556;18.728;2022-11-15T03:29:39;14.45;;;7.37;;
51248;SDS011;39642;47.556;18.728;2022-11-15T03:32:11;15.32;;;8.02;;
51248;SDS011;39642;47.556;18.728;2022-11-15T03:34:41;14.15;;;7.28;;
51248;SDS011;39642;47.556;18.728;2022-11-15T03:37:37;15.13;;;7.65;;
51248;SDS011;39642;47.556;18.728;2022-11-15T03:40:07;13.57;;;6.85;;
51248;SDS011;39642;47.556;18.728;2022-11-15T03:42:42;16.95;;;7.45;;
51248;SDS011;39642;47.556;18.728;2022-11-15T03:45:39;14.38;;;7.57;;
51248;SDS011;39642;47.556;18.728;2022-11-15T03:48:12;14.60;;;7.05;;
51248;SDS011;39642;47.556;18.728;2022-11-15T03:50:42;14.40;;;6.80;;
51248;SDS011;39642;47.556;18.728;2022-11-15T03:53:09;14.02;;;7.28;;
51248;SDS011;39642;47.556;18.728;2022-11-15T03:55:35;15.02;;;7.70;;
51248;SDS011;39642;47.556;18.728;2022-11-15T03:58:01;13.70;;;7.47;;
51248;SDS011;39642;47.556;18.728;2022-11-15T04:00:28;17.12;;;7.55;;
51248;SDS011;39642;47.556;18.728;2022-11-15T04:02:54;15.55;;;7.30;;
51248;SDS011;39642;47.556;18.728;2022-11-15T04:05:20;15.05;;;7.55;;
51248;SDS011;39642;47.556;18.728;2022-11-15T04:07:46;13.70;;;6.97;;
51248;SDS011;39642;47.556;18.728;2022-11-15T04:10:12;14.87;;;7.40;;
51248;SDS011;39642;47.556;18.728;2022-11-15T04:12:39;15.95;;;7.30;;
51248;SDS011;39642;47.556;18.728;2022-11-15T04:17:49;14.57;;;7.32;;
51248;SDS011;39642;47.556;18.728;2022-11-15T04:20:20;14.87;;;7.03;;
51248;SDS011;39642;47.556;18.728;2022-11-15T04:23:14;14.13;;;7.07;;
51248;SDS011;39642;47.556;18.728;2022-11-15T04:26:06;13.35;;;6.47;;
51248;SDS011;39642;47.556;18.728;2022-11-15T04:28:35;13.52;;;7.05;;
51248;SDS011;39642;47.556;18.728;2022-11-15T04:31:22;13.40;;;7.10;;
51248;SDS011;39642;47.556;18.728;2022-11-15T04:33:47;13.70;;;6.87;;
51248;SDS011;39642;47.556;18.728;2022-11-15T04:36:13;13.30;;;6.60;;
51248;SDS011;39642;47.556;18.728;2022-11-15T04:38:58;14.23;;;6.57;;
51248;SDS011;39642;47.556;18.728;2022-11-15T04:41:24;13.93;;;7.00;;
51248;SDS011;39642;47.556;18.728;2022-11-15T04:43:50;13.68;;;6.55;;
51248;SDS011;39642;47.556;18.728;2022-11-15T04:46:16;12.98;;;6.93;;
51248;SDS011;39642;47.556;18.728;2022-11-15T04:48:42;14.30;;;6.47;;
51248;SDS011;39642;47.556;18.728;2022-11-15T04:51:07;14.52;;;6.55;;
51248;SDS011;39642;47.556;18.728;2022-11-15T04:53:33;14.07;;;6.85;;
51248;SDS011;39642;47.556;18.728;2022-11-15T04:55:59;13.23;;;6.50;;
51248;SDS011;39642;47.556;18.728;2022-11-15T04:58:25;13.40;;;6.65;;
51248;SDS011;39642;47.556;18.728;2022-11-15T05:00:51;13.68;;;7.10;;
51248;SDS011;39642;47.556;18.728;2022-11-15T05:03:17;13.52;;;6.72;;
51248;SDS011;39642;47.556;18.728;2022-11-15T05:06:01;12.88;;;6.45;;
51248;SDS011;39642;47.556;18.728;2022-11-15T05:08:27;13.27;;;6.47;;
51248;SDS011;39642;47.556;18.728;2022-11-15T05:10:53;14.60;;;6.47;;
51248;SDS011;39642;47.556;18.728;2022-11-15T05:13:19;14.23;;;6.47;;
51248;SDS011;39642;47.556;18.728;2022-11-15T05:15:46;14.05;;;6.70;;
51248;SDS011;39642;47.556;18.728;2022-11-15T05:18:12;13.30;;;7.03;;
51248;SDS011;39642;47.556;18.728;2022-11-15T05:20:38;15.40;;;7.57;;
51248;SDS011;39642;47.556;18.728;2022-11-15T05:23:04;14.23;;;6.78;;
51248;SDS011;39642;47.556;18.728;2022-11-15T05:25:30;14.85;;;7.12;;
51248;SDS011;39642;47.556;18.728;2022-11-15T05:27:56;14.85;;;6.82;;
51248;SDS011;39642;47.556;18.728;2022-11-15T05:30:22;15.15;;;7.75;;
51248;SDS011;39642;47.556;18.728;2022-11-15T05:32:48;13.23;;;7.05;;
51248;SDS011;39642;47.556;18.728;2022-11-15T05:35:34;15.40;;;7.03;;
51248;SDS011;39642;47.556;18.728;2022-11-15T05:38:05;14.75;;;7.47;;
51248;SDS011;39642;47.556;18.728;2022-11-15T05:40:31;15.32;;;7.30;;
51248;SDS011;39642;47.556;18.728;2022-11-15T05:42:59;17.85;;;8.30;;
51248;SDS011;39642;47.556;18.728;2022-11-15T05:45:27;17.45;;;8.95;;
51248;SDS011;39642;47.556;18.728;2022-11-15T05:47:54;15.45;;;7.50;;
51248;SDS011;39642;47.556;18.728;2022-11-15T05:50:23;13.18;;;6.32;;
51248;SDS011;39642;47.556;18.728;2022-11-15T05:52:49;13.98;;;6.15;;
51248;SDS011;39642;47.556;18.728;2022-11-15T05:55:15;16.30;;;8.13;;
51248;SDS011;39642;47.556;18.728;2022-11-15T05:57:41;16.90;;;8.25;;
51248;SDS011;39642;47.556;18.728;2022-11-15T06:00:07;18.52;;;8.40;;
51248;SDS011;39642;47.556;18.728;2022-11-15T06:02:34;20.27;;;9.65;;
51248;SDS011;39642;47.556;18.728;2022-11-15T06:05:00;19.73;;;9.25;;
51248;SDS011;39642;47.556;18.728;2022-11-15T06:07:26;17.92;;;7.12;;
51248;SDS011;39642;47.556;18.728;2022-11-15T06:09:52;15.98;;;6.95;;
51248;SDS011;39642;47.556;18.728;2022-11-15T06:12:18;15.35;;;6.78;;
51248;SDS011;39642;47.556;18.728;2022-11-15T06:14:44;16.23;;;7.82;;
51248;SDS011;39642;47.556;18.728;2022-11-15T06:17:10;24.60;;;12.45;;
51248;SDS011;39642;47.556;18.728;2022-11-15T06:19:36;31.92;;;15.25;;
51248;SDS011;39642;47.556;18.728;2022-11-15T06:22:02;30.95;;;12.25;;
51248;SDS011;39642;47.556;18.728;2022-11-15T06:24:28;39.45;;;15.68;;
51248;SDS011;39642;47.556;18.728;2022-11-15T06:26:54;35.35;;;16.30;;
51248;SDS011;39642;47.556;18.728;2022-11-15T06:29:20;38.97;;;17.48;;
51248;SDS011;39642;47.556;18.728;2022-11-15T06:31:45;32.67;;;14.10;;
51248;SDS011;39642;47.556;18.728;2022-11-15T06:34:11;23.40;;;11.15;;
51248;SDS011;39642;47.556;18.728;2022-11-15T06:36:37;21.17;;;9.90;;
51248;SDS011;39642;47.556;18.728;2022-11-15T06:39:04;22.52;;;11.40;;
51248;SDS011;39642;47.556;18.728;2022-11-15T06:41:30;20.48;;;9.63;;
51248;SDS011;39642;47.556;18.728;2022-11-15T06:43:56;20.65;;;10.13;;
51248;SDS011;39642;47.556;18.728;2022-11-15T06:46:22;26.98;;;10.70;;
51248;SDS011;39642;47.556;18.728;2022-11-15T06:48:50;26.17;;;11.52;;
51248;SDS011;39642;47.556;18.728;2022-11-15T06:51:17;26.27;;;11.05;;
51248;SDS011;39642;47.556;18.728;2022-11-15T06:53:43;28.23;;;11.57;;
51248;SDS011;39642;47.556;18.728;2022-11-15T06:56:09;22.10;;;10.07;;
51248;SDS011;39642;47.556;18.728;2022-11-15T06:58:35;25.37;;;10.48;;
51248;SDS011;39642;47.556;18.728;2022-11-15T07:01:11;24.83;;;12.25;;
51248;SDS011;39642;47.556;18.728;2022-11-15T07:03:38;36.35;;;12.55;;
51248;SDS011;39642;47.556;18.728;2022-11-15T07:06:06;21.77;;;10.80;;
51248;SDS011;39642;47.556;18.728;2022-11-15T07:08:33;24.63;;;10.80;;
51248;SDS011;39642;47.556;18.728;2022-11-15T07:11:00;23.70;;;10.68;;
51248;SDS011;39642;47.556;18.728;2022-11-15T07:13:27;30.77;;;11.68;;
51248;SDS011;39642;47.556;18.728;2022-11-15T07:15:55;26.50;;;11.10;;
51248;SDS011;39642;47.556;18.728;2022-11-15T07:18:20;26.48;;;11.20;;
51248;SDS011;39642;47.556;18.728;2022-11-15T07:20:46;28.67;;;11.18;;
51248;SDS011;39642;47.556;18.728;2022-11-15T07:23:12;32.55;;;11.52;;
51248;SDS011;39642;47.556;18.728;2022-11-15T07:25:38;33.45;;;11.43;;
51248;SDS011;39642;47.556;18.728;2022-11-15T07:28:04;28.17;;;10.23;;
51248;SDS011;39642;47.556;18.728;2022-11-15T07:30:30;25.67;;;10.77;;
51248;SDS011;39642;47.556;18.728;2022-11-15T07:32:57;24.35;;;10.05;;
51248;SDS011;39642;47.556;18.728;2022-11-15T07:35:24;22.50;;;10.23;;
51248;SDS011;39642;47.556;18.728;2022-11-15T07:37:54;26.80;;;11.30;;
51248;SDS011;39642;47.556;18.728;2022-11-15T07:40:24;20.98;;;9.77;;
51248;SDS011;39642;47.556;18.728;2022-11-15T07:42:50;23.15;;;10.30;;
51248;SDS011;39642;47.556;18.728;2022-11-15T07:45:23;31.37;;;11.77;;
51248;SDS011;39642;47.556;18.728;2022-11-15T07:47:51;26.48;;;10.57;;
51248;SDS011;39642;47.556;18.728;2022-11-15T07:50:17;28.50;;;10.57;;
51248;SDS011;39642;47.556;18.728;2022-11-15T07:52:44;33.00;;;9.20;;
51248;SDS011;39642;47.556;18.728;2022-11-15T07:55:10;29.95;;;9.50;;
51248;SDS011;39642;47.556;18.728;2022-11-15T07:57:36;50.95;;;14.15;;
51248;SDS011;39642;47.556;18.728;2022-11-15T08:00:03;48.63;;;12.95;;
51248;SDS011;39642;47.556;18.728;2022-11-15T08:02:30;39.25;;;10.38;;
51248;SDS011;39642;47.556;18.728;2022-11-15T08:04:56;34.88;;;10.52;;
51248;SDS011;39642;47.556;18.728;2022-11-15T08:07:22;27.50;;;9.95;;
51248;SDS011;39642;47.556;18.728;2022-11-15T08:09:48;27.30;;;10.90;;
51248;SDS011;39642;47.556;18.728;2022-11-15T08:12:14;28.27;;;10.70;;
51248;SDS011;39642;47.556;18.728;2022-11-15T08:14:40;33.17;;;10.65;;
51248;SDS011;39642;47.556;18.728;2022-11-15T08:17:06;21.62;;;10.25;;
51248;SDS011;39642;47.556;18.728;2022-11-15T08:19:32;25.27;;;10.60;;
51248;SDS011;39642;47.556;18.728;2022-11-15T08:21:58;24.50;;;10.57;;
51248;SDS011;39642;47.556;18.728;2022-11-15T08:24:23;22.13;;;10.35;;
51248;SDS011;39642;47.556;18.728;2022-11-15T08:26:49;20.00;;;8.85;;
51248;SDS011;39642;47.556;18.728;2022-11-15T08:29:15;24.40;;;10.10;;
51248;SDS011;39642;47.556;18.728;2022-11-15T08:31:41;21.77;;;9.50;;
51248;SDS011;39642;47.556;18.728;2022-11-15T08:34:08;23.60;;;9.85;;
51248;SDS011;39642;47.556;18.728;2022-11-15T08:36:34;25.92;;;10.15;;
51248;SDS011;39642;47.556;18.728;2022-11-15T08:38:59;28.85;;;9.68;;
51248;SDS011;39642;47.556;18.728;2022-11-15T08:41:27;29.40;;;10.38;;
51248;SDS011;39642;47.556;18.728;2022-11-15T08:43:56;27.27;;;10.43;;
51248;SDS011;39642;47.556;18.728;2022-11-15T08:46:22;33.03;;;10.70;;
51248;SDS011;39642;47.556;18.728;2022-11-15T08:48:48;29.75;;;11.45;;
51248;SDS011;39642;47.556;18.728;2022-11-15T08:51:14;48.33;;;13.07;;
51248;SDS011;39642;47.556;18.728;2022-11-15T08:53:40;33.30;;;11.32;;
51248;SDS011;39642;47.556;18.728;2022-11-15T08:56:08;35.97;;;12.30;;
51248;SDS011;39642;47.556;18.728;2022-11-15T08:58:35;47.38;;;12.70;;
51248;SDS011;39642;47.556;18.728;2022-11-15T09:01:02;43.60;;;13.15;;
51248;SDS011;39642;47.556;18.728;2022-11-15T09:03:28;34.25;;;11.93;;
51248;SDS011;39642;47.556;18.728;2022-11-15T09:05:55;47.92;;;12.68;;
51248;SDS011;39642;47.556;18.728;2022-11-15T09:08:22;32.15;;;11.20;;
51248;SDS011;39642;47.556;18.728;2022-11-15T09:10:49;32.05;;;10.50;;
51248;SDS011;39642;47.556;18.728;2022-11-15T09:13:14;30.58;;;10.93;;
51248;SDS011;39642;47.556;18.728;2022-11-15T09:15:40;34.03;;;12.05;;
51248;SDS011;39642;47.556;18.728;2022-11-15T09:18:06;25.33;;;10.68;;
51248;SDS011;39642;47.556;18.728;2022-11-15T09:20:32;29.20;;;11.12;;
51248;SDS011;39642;47.556;18.728;2022-11-15T09:23:01;29.25;;;11.00;;
51248;SDS011;39642;47.556;18.728;2022-11-15T09:25:29;23.75;;;10.70;;
51248;SDS011;39642;47.556;18.728;2022-11-15T09:27:55;30.48;;;11.18;;
51248;SDS011;39642;47.556;18.728;2022-11-15T09:30:22;30.05;;;10.60;;
51248;SDS011;39642;47.556;18.728;2022-11-15T09:32:49;29.10;;;11.05;;
51248;SDS011;39642;47.556;18.728;2022-11-15T09:35:15;23.67;;;9.88;;
51248;SDS011;39642;47.556;18.728;2022-11-15T09:37:41;29.17;;;11.32;;
51248;SDS011;39642;47.556;18.728;2022-11-15T09:40:09;28.65;;;10.48;;
51248;SDS011;39642;47.556;18.728;2022-11-15T09:48:22;51.00;;;12.32;;
51248;SDS011;39642;47.556;18.728;2022-11-15T09:50:50;35.10;;;10.07;;
51248;SDS011;39642;47.556;18.728;2022-11-15T09:54:03;44.42;;;11.18;;
51248;SDS011;39642;47.556;18.728;2022-11-15T09:56:19;46.65;;;12.07;;
51248;SDS011;39642;47.556;18.728;2022-11-15T10:04:16;36.45;;;10.82;;
51248;SDS011;39642;47.556;18.728;2022-11-15T10:06:44;36.60;;;10.00;;
51248;SDS011;39642;47.556;18.728;2022-11-15T10:09:19;29.08;;;9.55;;
51248;SDS011;39642;47.556;18.728;2022-11-15T10:11:51;29.55;;;9.57;;
51248;SDS011;39642;47.556;18.728;2022-11-15T10:14:21;24.27;;;8.95;;
51248;SDS011;39642;47.556;18.728;2022-11-15T10:22:41;27.92;;;9.43;;
51248;SDS011;39642;47.556;18.728;2022-11-15T10:27:43;48.22;;;10.85;;
51248;SDS011;39642;47.556;18.728;2022-11-15T10:30:20;36.63;;;9.52;;
51248;SDS011;39642;47.556;18.728;2022-11-15T10:32:47;45.05;;;9.80;;
51248;SDS011;39642;47.556;18.728;2022-11-15T10:35:16;25.42;;;8.75;;
51248;SDS011;39642;47.556;18.728;2022-11-15T10:38:11;28.05;;;8.90;;
51248;SDS011;39642;47.556;18.728;2022-11-15T10:40:39;40.22;;;11.25;;
51248;SDS011;39642;47.556;18.728;2022-11-15T10:43:12;40.80;;;10.43;;
51248;SDS011;39642;47.556;18.728;2022-11-15T10:45:41;31.87;;;11.40;;
51248;SDS011;39642;47.556;18.728;2022-11-15T10:50:40;40.00;;;12.27;;
51248;SDS011;39642;47.556;18.728;2022-11-15T10:55:46;35.00;;;12.37;;
51248;SDS011;39642;47.556;18.728;2022-11-15T11:01:16;36.15;;;12.50;;
51248;SDS011;39642;47.556;18.728;2022-11-15T11:03:45;36.55;;;12.50;;
51248;SDS011;39642;47.556;18.728;2022-11-15T11:06:24;38.00;;;12.88;;
51248;SDS011;39642;47.556;18.728;2022-11-15T11:09:01;31.70;;;12.18;;
51248;SDS011;39642;47.556;18.728;2022-11-15T11:11:45;30.62;;;12.52;;
51248;SDS011;39642;47.556;18.728;2022-11-15T11:17:13;28.52;;;10.63;;
51248;SDS011;39642;47.556;18.728;2022-11-15T11:38:53;46.58;;;11.93;;
51248;SDS011;39642;47.556;18.728;2022-11-15T11:45:05;41.35;;;13.27;;
51248;SDS011;39642;47.556;18.728;2022-11-15T11:47:46;40.80;;;12.80;;
51248;SDS011;39642;47.556;18.728;2022-11-15T11:50:20;48.40;;;14.15;;
51248;SDS011;39642;47.556;18.728;2022-11-15T11:55:31;48.50;;;12.98;;
